sensor_id;sensor_type;location;lat;lon;timestamp;P1;durP1;ratioP1;P2;durP2;ratioP2
25657;SDS011;13517;59.320;18.042;2023-08-12T00:00:49;16.30;;;4.65;;
25657;SDS011;13517;59.320;18.042;2023-08-12T00:03:15;16.05;;;4.60;;
25657;SDS011;13517;59.320;18.042;2023-08-12T00:05:40;24.75;;;5.53;;
25657;SDS011;13517;59.320;18.042;2023-08-12T00:08:08;19.80;;;5.28;;
25657;SDS011;13517;59.320;18.042;2023-08-12T00:10:33;15.75;;;5.03;;
25657;SDS011;13517;59.320;18.042;2023-08-12T00:12:59;16.63;;;5.07;;
25657;SDS011;13517;59.320;18.042;2023-08-12T00:15:24;15.70;;;4.63;;
25657;SDS011;13517;59.320;18.042;2023-08-12T00:17:50;17.45;;;5.18;;
25657;SDS011;13517;59.320;18.042;2023-08-12T00:20:16;12.07;;;5.40;;
25657;SDS011;13517;59.320;18.042;2023-08-12T00:22:41;22.02;;;5.93;;
25657;SDS011;13517;59.320;18.042;2023-08-12T00:25:07;13.25;;;5.15;;
25657;SDS011;13517;59.320;18.042;2023-08-12T00:27:33;19.08;;;5.10;;
25657;SDS011;13517;59.320;18.042;2023-08-12T00:29:59;17.73;;;5.47;;
25657;SDS011;13517;59.320;18.042;2023-08-12T00:32:24;14.20;;;5.65;;
25657;SDS011;13517;59.320;18.042;2023-08-12T00:34:50;14.50;;;5.78;;
25657;SDS011;13517;59.320;18.042;2023-08-12T00:37:15;13.88;;;5.45;;
25657;SDS011;13517;59.320;18.042;2023-08-12T00:39:41;19.10;;;6.20;;
25657;SDS011;13517;59.320;18.042;2023-08-12T00:42:06;11.48;;;5.72;;
25657;SDS011;13517;59.320;18.042;2023-08-12T00:44:32;17.67;;;5.78;;
25657;SDS011;13517;59.320;18.042;2023-08-12T00:46:57;13.68;;;6.15;;
25657;SDS011;13517;59.320;18.042;2023-08-12T00:49:23;17.80;;;6.53;;
25657;SDS011;13517;59.320;18.042;2023-08-12T00:51:50;15.07;;;5.65;;
25657;SDS011;13517;59.320;18.042;2023-08-12T00:54:16;18.30;;;5.95;;
25657;SDS011;13517;59.320;18.042;2023-08-12T00:56:43;15.55;;;5.65;;
25657;SDS011;13517;59.320;18.042;2023-08-12T00:59:09;17.92;;;5.97;;
25657;SDS011;13517;59.320;18.042;2023-08-12T01:01:35;24.83;;;6.18;;
25657;SDS011;13517;59.320;18.042;2023-08-12T01:04:05;12.80;;;5.90;;
25657;SDS011;13517;59.320;18.042;2023-08-12T01:06:31;16.60;;;6.00;;
25657;SDS011;13517;59.320;18.042;2023-08-12T01:08:56;16.70;;;5.43;;
25657;SDS011;13517;59.320;18.042;2023-08-12T01:14:14;14.80;;;5.45;;
25657;SDS011;13517;59.320;18.042;2023-08-12T01:16:45;19.02;;;5.32;;
25657;SDS011;13517;59.320;18.042;2023-08-12T01:19:29;13.68;;;5.20;;
25657;SDS011;13517;59.320;18.042;2023-08-12T01:21:59;16.42;;;6.20;;
25657;SDS011;13517;59.320;18.042;2023-08-12T01:24:26;13.88;;;6.28;;
25657;SDS011;13517;59.320;18.042;2023-08-12T01:26:58;17.17;;;5.85;;
25657;SDS011;13517;59.320;18.042;2023-08-12T01:29:23;17.15;;;6.00;;
25657;SDS011;13517;59.320;18.042;2023-08-12T01:31:51;19.92;;;5.70;;
25657;SDS011;13517;59.320;18.042;2023-08-12T01:34:26;14.65;;;5.72;;
25657;SDS011;13517;59.320;18.042;2023-08-12T01:37:01;13.38;;;6.00;;
25657;SDS011;13517;59.320;18.042;2023-08-12T01:39:29;18.67;;;6.45;;
25657;SDS011;13517;59.320;18.042;2023-08-12T01:41:57;20.85;;;5.38;;
25657;SDS011;13517;59.320;18.042;2023-08-12T01:44:23;13.45;;;5.60;;
25657;SDS011;13517;59.320;18.042;2023-08-12T01:46:49;16.10;;;5.22;;
25657;SDS011;13517;59.320;18.042;2023-08-12T01:49:15;17.67;;;5.53;;
25657;SDS011;13517;59.320;18.042;2023-08-12T01:51:40;18.88;;;5.35;;
25657;SDS011;13517;59.320;18.042;2023-08-12T01:54:06;18.38;;;5.10;;
25657;SDS011;13517;59.320;18.042;2023-08-12T01:56:31;17.30;;;6.10;;
25657;SDS011;13517;59.320;18.042;2023-08-12T01:58:56;20.55;;;5.72;;
25657;SDS011;13517;59.320;18.042;2023-08-12T02:01:22;17.63;;;5.97;;
25657;SDS011;13517;59.320;18.042;2023-08-12T02:03:47;20.08;;;5.65;;
25657;SDS011;13517;59.320;18.042;2023-08-12T02:06:13;16.52;;;5.20;;
25657;SDS011;13517;59.320;18.042;2023-08-12T02:08:38;14.85;;;5.45;;
25657;SDS011;13517;59.320;18.042;2023-08-12T02:11:04;12.48;;;5.60;;
25657;SDS011;13517;59.320;18.042;2023-08-12T02:13:29;15.23;;;6.05;;
25657;SDS011;13517;59.320;18.042;2023-08-12T02:15:55;17.20;;;5.75;;
25657;SDS011;13517;59.320;18.042;2023-08-12T02:18:20;16.15;;;5.80;;
25657;SDS011;13517;59.320;18.042;2023-08-12T02:20:49;16.15;;;5.82;;
25657;SDS011;13517;59.320;18.042;2023-08-12T02:23:14;11.05;;;5.13;;
25657;SDS011;13517;59.320;18.042;2023-08-12T02:25:40;17.02;;;5.65;;
25657;SDS011;13517;59.320;18.042;2023-08-12T02:28:05;15.82;;;5.70;;
25657;SDS011;13517;59.320;18.042;2023-08-12T02:30:31;20.38;;;5.07;;
25657;SDS011;13517;59.320;18.042;2023-08-12T02:32:56;16.58;;;4.68;;
25657;SDS011;13517;59.320;18.042;2023-08-12T02:35:22;15.15;;;5.65;;
25657;SDS011;13517;59.320;18.042;2023-08-12T02:37:47;14.10;;;4.88;;
25657;SDS011;13517;59.320;18.042;2023-08-12T02:40:14;17.77;;;5.57;;
25657;SDS011;13517;59.320;18.042;2023-08-12T02:42:39;10.45;;;5.03;;
25657;SDS011;13517;59.320;18.042;2023-08-12T02:45:05;12.05;;;5.10;;
25657;SDS011;13517;59.320;18.042;2023-08-12T02:47:30;11.18;;;5.07;;
25657;SDS011;13517;59.320;18.042;2023-08-12T02:49:56;14.50;;;5.57;;
25657;SDS011;13517;59.320;18.042;2023-08-12T02:52:21;13.60;;;5.50;;
25657;SDS011;13517;59.320;18.042;2023-08-12T02:54:47;11.70;;;5.05;;
25657;SDS011;13517;59.320;18.042;2023-08-12T02:57:12;16.27;;;5.68;;
25657;SDS011;13517;59.320;18.042;2023-08-12T02:59:38;10.40;;;4.90;;
25657;SDS011;13517;59.320;18.042;2023-08-12T03:02:03;12.80;;;5.70;;
25657;SDS011;13517;59.320;18.042;2023-08-12T03:04:29;16.63;;;5.25;;
25657;SDS011;13517;59.320;18.042;2023-08-12T03:06:54;12.05;;;4.95;;
25657;SDS011;13517;59.320;18.042;2023-08-12T03:09:20;15.25;;;5.47;;
25657;SDS011;13517;59.320;18.042;2023-08-12T03:11:45;17.63;;;5.40;;
25657;SDS011;13517;59.320;18.042;2023-08-12T03:14:11;9.23;;;4.40;;
25657;SDS011;13517;59.320;18.042;2023-08-12T03:16:36;10.70;;;5.03;;
25657;SDS011;13517;59.320;18.042;2023-08-12T03:19:02;11.27;;;4.80;;
25657;SDS011;13517;59.320;18.042;2023-08-12T03:21:27;15.57;;;5.30;;
25657;SDS011;13517;59.320;18.042;2023-08-12T03:23:53;13.52;;;4.95;;
25657;SDS011;13517;59.320;18.042;2023-08-12T03:26:18;14.40;;;4.70;;
25657;SDS011;13517;59.320;18.042;2023-08-12T03:28:44;10.73;;;4.22;;
25657;SDS011;13517;59.320;18.042;2023-08-12T03:31:09;10.55;;;4.60;;
25657;SDS011;13517;59.320;18.042;2023-08-12T03:33:35;8.63;;;4.05;;
25657;SDS011;13517;59.320;18.042;2023-08-12T03:36:00;10.52;;;3.90;;
25657;SDS011;13517;59.320;18.042;2023-08-12T03:38:26;8.88;;;4.25;;
25657;SDS011;13517;59.320;18.042;2023-08-12T03:40:51;10.65;;;3.40;;
25657;SDS011;13517;59.320;18.042;2023-08-12T03:43:17;8.90;;;3.42;;
25657;SDS011;13517;59.320;18.042;2023-08-12T03:45:42;7.75;;;4.03;;
25657;SDS011;13517;59.320;18.042;2023-08-12T03:48:09;12.10;;;4.75;;
25657;SDS011;13517;59.320;18.042;2023-08-12T03:50:38;9.80;;;3.67;;
25657;SDS011;13517;59.320;18.042;2023-08-12T03:53:05;9.15;;;3.58;;
25657;SDS011;13517;59.320;18.042;2023-08-12T03:55:31;9.65;;;4.05;;
25657;SDS011;13517;59.320;18.042;2023-08-12T03:57:57;7.70;;;3.33;;
25657;SDS011;13517;59.320;18.042;2023-08-12T04:00:23;7.47;;;3.22;;
25657;SDS011;13517;59.320;18.042;2023-08-12T04:02:49;9.20;;;3.42;;
25657;SDS011;13517;59.320;18.042;2023-08-12T04:05:14;8.63;;;3.70;;
25657;SDS011;13517;59.320;18.042;2023-08-12T04:07:40;6.25;;;3.15;;
25657;SDS011;13517;59.320;18.042;2023-08-12T04:10:05;8.75;;;3.30;;
25657;SDS011;13517;59.320;18.042;2023-08-12T04:12:31;8.50;;;2.88;;
25657;SDS011;13517;59.320;18.042;2023-08-12T04:14:57;7.47;;;3.25;;
25657;SDS011;13517;59.320;18.042;2023-08-12T04:17:22;11.13;;;3.30;;
25657;SDS011;13517;59.320;18.042;2023-08-12T04:19:47;9.10;;;3.00;;
25657;SDS011;13517;59.320;18.042;2023-08-12T04:22:14;6.30;;;2.70;;
25657;SDS011;13517;59.320;18.042;2023-08-12T04:24:39;7.03;;;2.85;;
25657;SDS011;13517;59.320;18.042;2023-08-12T04:27:05;7.10;;;3.38;;
25657;SDS011;13517;59.320;18.042;2023-08-12T04:29:30;11.25;;;3.65;;
25657;SDS011;13517;59.320;18.042;2023-08-12T04:31:55;6.45;;;2.60;;
25657;SDS011;13517;59.320;18.042;2023-08-12T04:34:21;6.63;;;3.50;;
25657;SDS011;13517;59.320;18.042;2023-08-12T04:36:46;7.53;;;2.38;;
25657;SDS011;13517;59.320;18.042;2023-08-12T04:39:12;15.10;;;3.40;;
25657;SDS011;13517;59.320;18.042;2023-08-12T04:41:37;7.95;;;3.00;;
25657;SDS011;13517;59.320;18.042;2023-08-12T04:44:04;8.38;;;3.13;;
25657;SDS011;13517;59.320;18.042;2023-08-12T04:46:30;5.93;;;3.00;;
25657;SDS011;13517;59.320;18.042;2023-08-12T04:48:55;6.20;;;2.58;;
25657;SDS011;13517;59.320;18.042;2023-08-12T04:51:21;5.90;;;2.70;;
25657;SDS011;13517;59.320;18.042;2023-08-12T04:53:46;7.53;;;2.80;;
25657;SDS011;13517;59.320;18.042;2023-08-12T04:56:12;6.63;;;2.78;;
25657;SDS011;13517;59.320;18.042;2023-08-12T04:58:37;5.30;;;2.40;;
25657;SDS011;13517;59.320;18.042;2023-08-12T05:01:02;7.75;;;2.58;;
25657;SDS011;13517;59.320;18.042;2023-08-12T05:03:28;25.77;;;3.47;;
25657;SDS011;13517;59.320;18.042;2023-08-12T05:05:54;6.57;;;2.70;;
25657;SDS011;13517;59.320;18.042;2023-08-12T05:08:19;8.23;;;2.67;;
25657;SDS011;13517;59.320;18.042;2023-08-12T05:10:48;7.95;;;2.70;;
25657;SDS011;13517;59.320;18.042;2023-08-12T05:13:14;6.60;;;2.30;;
25657;SDS011;13517;59.320;18.042;2023-08-12T05:15:40;5.97;;;2.08;;
25657;SDS011;13517;59.320;18.042;2023-08-12T05:18:05;5.15;;;2.35;;
25657;SDS011;13517;59.320;18.042;2023-08-12T05:20:31;5.93;;;2.55;;
25657;SDS011;13517;59.320;18.042;2023-08-12T05:22:57;9.40;;;2.75;;
25657;SDS011;13517;59.320;18.042;2023-08-12T05:25:22;5.65;;;2.72;;
25657;SDS011;13517;59.320;18.042;2023-08-12T05:27:48;7.97;;;2.53;;
25657;SDS011;13517;59.320;18.042;2023-08-12T05:30:14;4.65;;;1.88;;
25657;SDS011;13517;59.320;18.042;2023-08-12T05:32:39;4.25;;;2.03;;
25657;SDS011;13517;59.320;18.042;2023-08-12T05:35:05;8.45;;;2.30;;
25657;SDS011;13517;59.320;18.042;2023-08-12T05:37:31;10.18;;;2.55;;
25657;SDS011;13517;59.320;18.042;2023-08-12T05:39:56;6.47;;;2.25;;
25657;SDS011;13517;59.320;18.042;2023-08-12T05:42:22;6.28;;;2.53;;
25657;SDS011;13517;59.320;18.042;2023-08-12T05:44:47;4.75;;;2.15;;
25657;SDS011;13517;59.320;18.042;2023-08-12T05:47:12;8.85;;;2.10;;
25657;SDS011;13517;59.320;18.042;2023-08-12T05:49:38;11.10;;;2.10;;
25657;SDS011;13517;59.320;18.042;2023-08-12T05:52:03;6.40;;;2.38;;
25657;SDS011;13517;59.320;18.042;2023-08-12T05:54:29;12.88;;;5.07;;
25657;SDS011;13517;59.320;18.042;2023-08-12T05:56:55;5.70;;;1.70;;
25657;SDS011;13517;59.320;18.042;2023-08-12T05:59:20;7.95;;;2.28;;
25657;SDS011;13517;59.320;18.042;2023-08-12T06:01:45;4.00;;;1.73;;
25657;SDS011;13517;59.320;18.042;2023-08-12T06:04:11;7.97;;;2.20;;
25657;SDS011;13517;59.320;18.042;2023-08-12T06:06:36;7.15;;;2.08;;
25657;SDS011;13517;59.320;18.042;2023-08-12T06:09:02;3.67;;;1.98;;
25657;SDS011;13517;59.320;18.042;2023-08-12T06:11:28;7.68;;;1.95;;
25657;SDS011;13517;59.320;18.042;2023-08-12T06:13:53;5.22;;;1.77;;
25657;SDS011;13517;59.320;18.042;2023-08-12T06:16:19;5.43;;;1.80;;
25657;SDS011;13517;59.320;18.042;2023-08-12T06:18:44;5.97;;;1.98;;
25657;SDS011;13517;59.320;18.042;2023-08-12T06:21:10;4.70;;;1.80;;
25657;SDS011;13517;59.320;18.042;2023-08-12T06:23:35;5.15;;;1.80;;
25657;SDS011;13517;59.320;18.042;2023-08-12T06:26:01;4.53;;;1.58;;
25657;SDS011;13517;59.320;18.042;2023-08-12T06:28:26;7.70;;;1.63;;
25657;SDS011;13517;59.320;18.042;2023-08-12T06:30:52;9.75;;;2.22;;
25657;SDS011;13517;59.320;18.042;2023-08-12T06:33:18;5.15;;;1.80;;
25657;SDS011;13517;59.320;18.042;2023-08-12T06:35:43;7.65;;;1.98;;
25657;SDS011;13517;59.320;18.042;2023-08-12T06:38:09;5.13;;;1.67;;
25657;SDS011;13517;59.320;18.042;2023-08-12T06:40:35;6.55;;;1.80;;
25657;SDS011;13517;59.320;18.042;2023-08-12T06:43:01;4.50;;;2.00;;
25657;SDS011;13517;59.320;18.042;2023-08-12T06:45:26;4.38;;;1.83;;
25657;SDS011;13517;59.320;18.042;2023-08-12T06:47:51;6.43;;;1.65;;
25657;SDS011;13517;59.320;18.042;2023-08-12T06:50:17;5.43;;;1.80;;
25657;SDS011;13517;59.320;18.042;2023-08-12T06:52:42;6.07;;;2.35;;
25657;SDS011;13517;59.320;18.042;2023-08-12T06:55:08;8.15;;;1.70;;
25657;SDS011;13517;59.320;18.042;2023-08-12T06:57:33;5.05;;;1.80;;
25657;SDS011;13517;59.320;18.042;2023-08-12T06:59:59;4.53;;;1.65;;
25657;SDS011;13517;59.320;18.042;2023-08-12T07:02:24;4.53;;;2.40;;
25657;SDS011;13517;59.320;18.042;2023-08-12T07:04:50;3.72;;;2.10;;
25657;SDS011;13517;59.320;18.042;2023-08-12T07:07:15;5.80;;;2.25;;
25657;SDS011;13517;59.320;18.042;2023-08-12T07:09:40;4.40;;;1.70;;
25657;SDS011;13517;59.320;18.042;2023-08-12T07:12:06;6.03;;;1.90;;
25657;SDS011;13517;59.320;18.042;2023-08-12T07:14:32;4.95;;;1.50;;
25657;SDS011;13517;59.320;18.042;2023-08-12T07:16:57;6.32;;;2.35;;
25657;SDS011;13517;59.320;18.042;2023-08-12T07:19:22;6.18;;;2.17;;
25657;SDS011;13517;59.320;18.042;2023-08-12T07:21:48;5.93;;;2.00;;
25657;SDS011;13517;59.320;18.042;2023-08-12T07:24:13;3.38;;;1.85;;
25657;SDS011;13517;59.320;18.042;2023-08-12T07:26:39;5.43;;;2.00;;
25657;SDS011;13517;59.320;18.042;2023-08-12T07:29:04;3.47;;;1.98;;
25657;SDS011;13517;59.320;18.042;2023-08-12T07:31:30;6.43;;;2.10;;
25657;SDS011;13517;59.320;18.042;2023-08-12T07:33:55;7.43;;;1.85;;
25657;SDS011;13517;59.320;18.042;2023-08-12T07:36:20;7.35;;;1.88;;
25657;SDS011;13517;59.320;18.042;2023-08-12T07:38:46;7.43;;;2.00;;
25657;SDS011;13517;59.320;18.042;2023-08-12T07:41:11;4.63;;;1.55;;
25657;SDS011;13517;59.320;18.042;2023-08-12T07:43:37;2.65;;;1.75;;
25657;SDS011;13517;59.320;18.042;2023-08-12T07:46:02;6.93;;;1.90;;
25657;SDS011;13517;59.320;18.042;2023-08-12T07:48:28;6.63;;;2.15;;
25657;SDS011;13517;59.320;18.042;2023-08-12T07:50:57;6.60;;;2.10;;
25657;SDS011;13517;59.320;18.042;2023-08-12T07:53:23;7.15;;;1.88;;
25657;SDS011;13517;59.320;18.042;2023-08-12T07:55:49;10.85;;;1.80;;
25657;SDS011;13517;59.320;18.042;2023-08-12T07:58:14;4.72;;;1.70;;
25657;SDS011;13517;59.320;18.042;2023-08-12T08:00:40;4.20;;;1.50;;
25657;SDS011;13517;59.320;18.042;2023-08-12T08:03:06;4.45;;;1.77;;
25657;SDS011;13517;59.320;18.042;2023-08-12T08:05:31;8.00;;;2.15;;
25657;SDS011;13517;59.320;18.042;2023-08-12T08:07:56;4.60;;;1.77;;
25657;SDS011;13517;59.320;18.042;2023-08-12T08:10:22;3.35;;;1.60;;
25657;SDS011;13517;59.320;18.042;2023-08-12T08:12:48;6.18;;;1.95;;
25657;SDS011;13517;59.320;18.042;2023-08-12T08:15:13;6.32;;;1.80;;
25657;SDS011;13517;59.320;18.042;2023-08-12T08:17:38;4.45;;;1.60;;
25657;SDS011;13517;59.320;18.042;2023-08-12T08:20:04;2.55;;;1.70;;
25657;SDS011;13517;59.320;18.042;2023-08-12T08:22:30;8.18;;;2.70;;
25657;SDS011;13517;59.320;18.042;2023-08-12T08:24:56;5.22;;;2.20;;
25657;SDS011;13517;59.320;18.042;2023-08-12T08:27:22;4.07;;;1.75;;
25657;SDS011;13517;59.320;18.042;2023-08-12T08:29:47;3.70;;;1.55;;
25657;SDS011;13517;59.320;18.042;2023-08-12T08:32:13;4.25;;;1.88;;
25657;SDS011;13517;59.320;18.042;2023-08-12T08:34:38;6.25;;;2.17;;
25657;SDS011;13517;59.320;18.042;2023-08-12T08:37:03;8.35;;;2.10;;
25657;SDS011;13517;59.320;18.042;2023-08-12T08:39:29;4.00;;;1.60;;
25657;SDS011;13517;59.320;18.042;2023-08-12T08:41:54;5.82;;;2.08;;
25657;SDS011;13517;59.320;18.042;2023-08-12T08:44:22;5.93;;;1.90;;
25657;SDS011;13517;59.320;18.042;2023-08-12T08:46:53;4.35;;;2.08;;
25657;SDS011;13517;59.320;18.042;2023-08-12T08:49:20;4.82;;;2.05;;
25657;SDS011;13517;59.320;18.042;2023-08-12T08:51:48;6.13;;;1.85;;
25657;SDS011;13517;59.320;18.042;2023-08-12T08:54:15;4.10;;;2.03;;
25657;SDS011;13517;59.320;18.042;2023-08-12T08:56:41;3.53;;;1.65;;
25657;SDS011;13517;59.320;18.042;2023-08-12T08:59:07;7.32;;;2.22;;
25657;SDS011;13517;59.320;18.042;2023-08-12T09:01:33;8.73;;;2.22;;
25657;SDS011;13517;59.320;18.042;2023-08-12T09:04:01;5.60;;;2.47;;
25657;SDS011;13517;59.320;18.042;2023-08-12T09:06:29;5.63;;;1.92;;
25657;SDS011;13517;59.320;18.042;2023-08-12T09:08:55;6.43;;;1.75;;
25657;SDS011;13517;59.320;18.042;2023-08-12T09:11:21;6.90;;;2.00;;
25657;SDS011;13517;59.320;18.042;2023-08-12T09:13:46;3.83;;;1.85;;
25657;SDS011;13517;59.320;18.042;2023-08-12T09:16:13;3.25;;;1.58;;
25657;SDS011;13517;59.320;18.042;2023-08-12T09:18:39;8.13;;;2.40;;
25657;SDS011;13517;59.320;18.042;2023-08-12T09:21:07;3.60;;;1.85;;
25657;SDS011;13517;59.320;18.042;2023-08-12T09:23:34;6.85;;;1.98;;
25657;SDS011;13517;59.320;18.042;2023-08-12T09:26:03;4.00;;;2.08;;
25657;SDS011;13517;59.320;18.042;2023-08-12T09:28:37;3.72;;;1.70;;
25657;SDS011;13517;59.320;18.042;2023-08-12T09:31:03;6.97;;;1.58;;
25657;SDS011;13517;59.320;18.042;2023-08-12T09:33:28;4.57;;;1.70;;
25657;SDS011;13517;59.320;18.042;2023-08-12T09:35:54;3.25;;;1.75;;
25657;SDS011;13517;59.320;18.042;2023-08-12T09:38:21;5.72;;;1.73;;
25657;SDS011;13517;59.320;18.042;2023-08-12T09:40:47;7.57;;;1.60;;
25657;SDS011;13517;59.320;18.042;2023-08-12T09:43:13;3.70;;;1.70;;
25657;SDS011;13517;59.320;18.042;2023-08-12T09:45:38;7.38;;;2.00;;
25657;SDS011;13517;59.320;18.042;2023-08-12T09:48:04;2.63;;;1.70;;
25657;SDS011;13517;59.320;18.042;2023-08-12T09:50:30;3.47;;;1.63;;
25657;SDS011;13517;59.320;18.042;2023-08-12T09:52:55;5.18;;;2.13;;
25657;SDS011;13517;59.320;18.042;2023-08-12T09:55:22;4.95;;;1.92;;
25657;SDS011;13517;59.320;18.042;2023-08-12T09:57:53;5.20;;;1.70;;
25657;SDS011;13517;59.320;18.042;2023-08-12T10:00:20;4.90;;;1.65;;
25657;SDS011;13517;59.320;18.042;2023-08-12T10:02:48;5.18;;;1.60;;
25657;SDS011;13517;59.320;18.042;2023-08-12T10:05:23;5.88;;;1.85;;
25657;SDS011;13517;59.320;18.042;2023-08-12T10:07:52;3.33;;;2.10;;
25657;SDS011;13517;59.320;18.042;2023-08-12T10:10:18;3.53;;;1.80;;
25657;SDS011;13517;59.320;18.042;2023-08-12T10:12:44;5.13;;;2.17;;
25657;SDS011;13517;59.320;18.042;2023-08-12T10:15:10;3.78;;;1.90;;
25657;SDS011;13517;59.320;18.042;2023-08-12T10:17:36;6.50;;;2.15;;
25657;SDS011;13517;59.320;18.042;2023-08-12T10:20:06;5.65;;;2.13;;
25657;SDS011;13517;59.320;18.042;2023-08-12T10:22:34;5.82;;;1.40;;
25657;SDS011;13517;59.320;18.042;2023-08-12T10:25:01;2.92;;;1.58;;
25657;SDS011;13517;59.320;18.042;2023-08-12T10:27:28;2.78;;;1.65;;
25657;SDS011;13517;59.320;18.042;2023-08-12T10:29:57;3.25;;;1.83;;
25657;SDS011;13517;59.320;18.042;2023-08-12T10:32:23;4.45;;;1.75;;
25657;SDS011;13517;59.320;18.042;2023-08-12T10:34:56;2.67;;;1.63;;
25657;SDS011;13517;59.320;18.042;2023-08-12T10:37:25;4.75;;;1.90;;
25657;SDS011;13517;59.320;18.042;2023-08-12T10:39:55;2.00;;;1.58;;
25657;SDS011;13517;59.320;18.042;2023-08-12T10:42:40;3.97;;;2.00;;
25657;SDS011;13517;59.320;18.042;2023-08-12T10:45:09;7.63;;;1.85;;
25657;SDS011;13517;59.320;18.042;2023-08-12T10:47:43;4.65;;;1.63;;
25657;SDS011;13517;59.320;18.042;2023-08-12T10:50:20;8.60;;;2.03;;
25657;SDS011;13517;59.320;18.042;2023-08-12T10:52:47;7.25;;;1.77;;
25657;SDS011;13517;59.320;18.042;2023-08-12T10:55:16;3.58;;;2.03;;
25657;SDS011;13517;59.320;18.042;2023-08-12T10:57:43;4.95;;;1.85;;
25657;SDS011;13517;59.320;18.042;2023-08-12T11:00:15;7.40;;;2.83;;
25657;SDS011;13517;59.320;18.042;2023-08-12T11:02:48;4.95;;;1.83;;
25657;SDS011;13517;59.320;18.042;2023-08-12T11:05:15;3.53;;;1.85;;
25657;SDS011;13517;59.320;18.042;2023-08-12T11:07:44;4.88;;;1.90;;
25657;SDS011;13517;59.320;18.042;2023-08-12T11:10:14;2.45;;;2.00;;
25657;SDS011;13517;59.320;18.042;2023-08-12T11:13:03;8.70;;;2.10;;
25657;SDS011;13517;59.320;18.042;2023-08-12T11:15:32;8.75;;;1.92;;
25657;SDS011;13517;59.320;18.042;2023-08-12T11:18:09;3.28;;;1.90;;
25657;SDS011;13517;59.320;18.042;2023-08-12T11:20:36;4.75;;;2.08;;
25657;SDS011;13517;59.320;18.042;2023-08-12T11:23:02;3.22;;;1.90;;
25657;SDS011;13517;59.320;18.042;2023-08-12T11:25:29;3.03;;;2.00;;
25657;SDS011;13517;59.320;18.042;2023-08-12T11:27:56;2.30;;;1.90;;
25657;SDS011;13517;59.320;18.042;2023-08-12T11:30:22;3.88;;;1.60;;
25657;SDS011;13517;59.320;18.042;2023-08-12T11:32:49;2.45;;;1.70;;
25657;SDS011;13517;59.320;18.042;2023-08-12T11:35:16;5.05;;;2.00;;
25657;SDS011;13517;59.320;18.042;2023-08-12T11:37:44;3.05;;;2.05;;
25657;SDS011;13517;59.320;18.042;2023-08-12T11:40:11;3.45;;;1.90;;
25657;SDS011;13517;59.320;18.042;2023-08-12T11:42:40;3.50;;;1.98;;
25657;SDS011;13517;59.320;18.042;2023-08-12T11:45:07;5.43;;;1.90;;
25657;SDS011;13517;59.320;18.042;2023-08-12T11:47:34;3.92;;;2.00;;
25657;SDS011;13517;59.320;18.042;2023-08-12T11:50:07;7.47;;;2.25;;
25657;SDS011;13517;59.320;18.042;2023-08-12T11:52:34;3.55;;;2.22;;
25657;SDS011;13517;59.320;18.042;2023-08-12T11:55:00;6.20;;;1.95;;
25657;SDS011;13517;59.320;18.042;2023-08-12T11:57:27;6.05;;;2.30;;
25657;SDS011;13517;59.320;18.042;2023-08-12T11:59:53;2.85;;;1.98;;
25657;SDS011;13517;59.320;18.042;2023-08-12T12:02:24;2.83;;;1.90;;
25657;SDS011;13517;59.320;18.042;2023-08-12T12:04:51;3.05;;;1.95;;
25657;SDS011;13517;59.320;18.042;2023-08-12T12:07:17;6.68;;;2.50;;
25657;SDS011;13517;59.320;18.042;2023-08-12T12:09:46;3.90;;;1.95;;
25657;SDS011;13517;59.320;18.042;2023-08-12T12:12:15;6.63;;;2.42;;
25657;SDS011;13517;59.320;18.042;2023-08-12T12:14:40;7.20;;;2.08;;
25657;SDS011;13517;59.320;18.042;2023-08-12T12:17:09;5.57;;;2.15;;
25657;SDS011;13517;59.320;18.042;2023-08-12T12:19:39;2.80;;;2.03;;
25657;SDS011;13517;59.320;18.042;2023-08-12T12:22:05;7.57;;;2.28;;
25657;SDS011;13517;59.320;18.042;2023-08-12T12:24:31;7.07;;;2.03;;
25657;SDS011;13517;59.320;18.042;2023-08-12T12:27:09;5.63;;;2.40;;
25657;SDS011;13517;59.320;18.042;2023-08-12T12:29:35;8.13;;;2.45;;
25657;SDS011;13517;59.320;18.042;2023-08-12T12:32:01;4.93;;;1.95;;
25657;SDS011;13517;59.320;18.042;2023-08-12T12:34:26;7.65;;;2.55;;
25657;SDS011;13517;59.320;18.042;2023-08-12T12:36:51;6.03;;;2.30;;
25657;SDS011;13517;59.320;18.042;2023-08-12T12:39:17;4.75;;;2.00;;
25657;SDS011;13517;59.320;18.042;2023-08-12T12:41:42;6.25;;;2.55;;
25657;SDS011;13517;59.320;18.042;2023-08-12T12:44:08;7.78;;;2.55;;
25657;SDS011;13517;59.320;18.042;2023-08-12T12:46:33;6.50;;;2.10;;
25657;SDS011;13517;59.320;18.042;2023-08-12T12:48:58;5.00;;;2.30;;
25657;SDS011;13517;59.320;18.042;2023-08-12T12:51:24;4.80;;;1.85;;
25657;SDS011;13517;59.320;18.042;2023-08-12T12:53:49;6.90;;;2.33;;
25657;SDS011;13517;59.320;18.042;2023-08-12T12:56:15;4.60;;;2.10;;
25657;SDS011;13517;59.320;18.042;2023-08-12T12:58:40;7.10;;;2.20;;
25657;SDS011;13517;59.320;18.042;2023-08-12T13:01:05;4.22;;;1.70;;
25657;SDS011;13517;59.320;18.042;2023-08-12T13:03:31;5.82;;;1.70;;
25657;SDS011;13517;59.320;18.042;2023-08-12T13:05:57;3.65;;;1.60;;
25657;SDS011;13517;59.320;18.042;2023-08-12T13:08:23;4.93;;;1.77;;
25657;SDS011;13517;59.320;18.042;2023-08-12T13:10:49;2.65;;;1.73;;
25657;SDS011;13517;59.320;18.042;2023-08-12T13:13:16;5.97;;;1.73;;
25657;SDS011;13517;59.320;18.042;2023-08-12T13:15:43;4.22;;;2.22;;
25657;SDS011;13517;59.320;18.042;2023-08-12T13:18:09;3.92;;;1.77;;
25657;SDS011;13517;59.320;18.042;2023-08-12T13:20:35;4.70;;;1.88;;
25657;SDS011;13517;59.320;18.042;2023-08-12T13:23:01;4.45;;;2.10;;
25657;SDS011;13517;59.320;18.042;2023-08-12T13:25:30;5.80;;;1.85;;
25657;SDS011;13517;59.320;18.042;2023-08-12T13:27:58;3.75;;;1.80;;
25657;SDS011;13517;59.320;18.042;2023-08-12T13:30:24;3.75;;;1.63;;
25657;SDS011;13517;59.320;18.042;2023-08-12T13:32:49;3.08;;;1.67;;
25657;SDS011;13517;59.320;18.042;2023-08-12T13:35:15;6.47;;;2.00;;
25657;SDS011;13517;59.320;18.042;2023-08-12T13:37:41;1.88;;;1.48;;
25657;SDS011;13517;59.320;18.042;2023-08-12T13:40:07;7.20;;;2.00;;
25657;SDS011;13517;59.320;18.042;2023-08-12T13:42:34;7.13;;;1.85;;
25657;SDS011;13517;59.320;18.042;2023-08-12T13:44:59;3.60;;;1.70;;
25657;SDS011;13517;59.320;18.042;2023-08-12T13:47:24;4.18;;;2.22;;
25657;SDS011;13517;59.320;18.042;2023-08-12T13:49:50;7.45;;;1.70;;
25657;SDS011;13517;59.320;18.042;2023-08-12T13:52:15;5.22;;;1.85;;
25657;SDS011;13517;59.320;18.042;2023-08-12T13:54:40;5.85;;;2.00;;
25657;SDS011;13517;59.320;18.042;2023-08-12T13:57:06;6.00;;;2.08;;
25657;SDS011;13517;59.320;18.042;2023-08-12T13:59:31;4.40;;;1.58;;
25657;SDS011;13517;59.320;18.042;2023-08-12T14:01:57;5.93;;;2.17;;
25657;SDS011;13517;59.320;18.042;2023-08-12T14:04:22;4.50;;;2.30;;
25657;SDS011;13517;59.320;18.042;2023-08-12T14:06:48;6.32;;;2.30;;
25657;SDS011;13517;59.320;18.042;2023-08-12T14:09:13;5.30;;;2.30;;
25657;SDS011;13517;59.320;18.042;2023-08-12T14:11:41;6.68;;;1.98;;
25657;SDS011;13517;59.320;18.042;2023-08-12T14:14:07;4.75;;;2.60;;
25657;SDS011;13517;59.320;18.042;2023-08-12T14:16:32;6.18;;;2.65;;
25657;SDS011;13517;59.320;18.042;2023-08-12T14:18:58;4.50;;;2.20;;
25657;SDS011;13517;59.320;18.042;2023-08-12T14:21:23;4.47;;;2.33;;
25657;SDS011;13517;59.320;18.042;2023-08-12T14:23:49;7.65;;;2.50;;
25657;SDS011;13517;59.320;18.042;2023-08-12T14:26:14;8.52;;;2.72;;
25657;SDS011;13517;59.320;18.042;2023-08-12T14:28:40;4.65;;;2.40;;